Time;durP1;ratioP1;P1;durP2;ratioP2;P2;SDS_P1;SDS_P2;PMS_P1;PMS_P2;Temp;Humidity;BMP_temperature;BMP_pressure;BME280_temperature;BME280_humidity;BME280_pressure;Samples;Min_cycle;Max_cycle;Signal;HPM_P1;HPM_P2
2022/11/24 00:01:30;;;;;;;14.50;4.47;;;7.40;99.90;;;;;;5052723;28;20483;-60
2022/11/24 00:03:59;;;;;;;13.77;6.03;;;7.40;99.90;;;;;;5048683;28;20500;-60
2022/11/24 00:06:27;;;;;;;16.70;6.73;;;7.40;99.90;;;;;;5055942;28;20437;-59
2022/11/24 00:08:56;;;;;;;23.63;7.07;;;7.30;99.90;;;;;;5058342;28;20448;-59
2022/11/24 00:11:31;;;;;;;26.47;6.57;;;7.30;99.90;;;;;;5055605;28;20524;-60
2022/11/24 00:13:59;;;;;;;14.30;5.40;;;7.30;99.90;;;;;;5060285;28;20455;-60
2022/11/24 00:16:30;;;;;;;18.40;6.27;;;7.30;99.90;;;;;;5058945;28;20496;-59
2022/11/24 00:19:01;;;;;;;23.83;6.17;;;7.30;99.90;;;;;;5059758;28;20443;-60
2022/11/24 00:21:30;;;;;;;17.43;6.50;;;7.20;99.90;;;;;;5052366;28;20444;-60
2022/11/24 00:23:58;;;;;;;14.57;7.57;;;7.20;99.90;;;;;;5040844;28;20514;-59
2022/11/24 00:26:28;;;;;;;11.50;5.30;;;7.20;99.90;;;;;;5040123;28;20469;-59
2022/11/24 00:28:57;;;;;;;23.87;5.63;;;7.10;99.90;;;;;;5058531;28;20546;-61
2022/11/24 00:31:27;;;;;;;13.67;5.20;;;7.10;99.90;;;;;;5057720;28;20528;-61
2022/11/24 00:33:56;;;;;;;13.73;4.30;;;7.10;99.90;;;;;;5059382;28;20870;-59
2022/11/24 00:36:25;;;;;;;15.27;5.03;;;7.10;99.90;;;;;;5058022;28;20429;-61
2022/11/24 00:38:54;;;;;;;14.80;4.90;;;7.10;99.90;;;;;;5059034;28;20462;-61
2022/11/24 00:41:22;;;;;;;23.43;6.07;;;7.10;99.90;;;;;;5059325;28;20891;-61
2022/11/24 00:43:51;;;;;;;20.73;5.50;;;7.10;99.90;;;;;;5041878;28;20743;-61
2022/11/24 00:46:18;;;;;;;20.73;6.50;;;7.00;99.90;;;;;;5040289;28;20783;-61
2022/11/24 00:48:46;;;;;;;21.97;5.30;;;7.00;99.90;;;;;;5039422;28;20549;-62
2022/11/24 00:54:35;;;;;;;22.77;7.70;;;7.00;99.90;;;;;;5038600;28;20457;-61
2022/11/24 00:57:02;;;;;;;12.00;4.80;;;7.00;99.90;;;;;;5039432;28;20499;-61
2022/11/24 00:59:34;;;;;;;18.67;6.13;;;6.90;99.90;;;;;;5039072;28;20469;-61
2022/11/24 01:02:01;;;;;;;10.77;4.40;;;6.90;99.90;;;;;;5381905;22;20481;-61
2022/11/24 01:04:28;;;;;;;17.87;4.90;;;6.90;99.90;;;;;;5077669;28;20423;-60
2022/11/24 01:06:57;;;;;;;12.57;5.17;;;6.90;99.90;;;;;;5063650;28;20865;-60
2022/11/24 01:09:28;;;;;;;15.73;5.13;;;6.80;99.90;;;;;;5057358;28;20458;-61
2022/11/24 01:12:02;;;;;;;15.90;4.77;;;6.90;99.90;;;;;;5061887;28;20570;-61
2022/11/24 01:14:35;;;;;;;12.90;4.30;;;6.90;99.90;;;;;;5075880;28;20508;-61
2022/11/24 01:17:03;;;;;;;17.70;4.80;;;6.90;99.90;;;;;;5077265;28;20448;-61
2022/11/24 01:19:33;;;;;;;19.33;6.80;;;6.90;99.90;;;;;;5077592;28;20535;-61
2022/11/24 01:22:00;;;;;;;15.33;5.37;;;6.90;99.90;;;;;;5076730;28;20844;-61
2022/11/24 01:24:27;;;;;;;16.97;4.80;;;6.90;99.90;;;;;;5058016;28;20480;-57
2022/11/24 01:26:54;;;;;;;15.73;4.80;;;7.00;99.90;;;;;;5058469;28;20776;-60
2022/11/24 01:29:22;;;;;;;14.70;5.23;;;6.90;99.90;;;;;;5057652;28;20737;-61
2022/11/24 01:31:50;;;;;;;15.83;4.77;;;6.90;99.90;;;;;;5057553;28;20468;-61
2022/11/24 01:34:18;;;;;;;17.57;4.90;;;6.90;99.90;;;;;;5073313;28;20459;-61
2022/11/24 01:36:45;;;;;;;18.47;4.70;;;7.00;99.90;;;;;;5076121;28;20567;-61
2022/11/24 01:39:13;;;;;;;13.20;3.93;;;7.00;99.90;;;;;;5073288;28;20466;-60
2022/11/24 01:41:43;;;;;;;13.73;4.17;;;7.00;99.90;;;;;;5057525;28;20894;-61
2022/11/24 01:44:22;;;;;;;11.90;4.07;;;6.90;99.90;;;;;;5058478;28;20932;-60
2022/11/24 01:46:54;;;;;;;10.90;4.90;;;6.90;99.90;;;;;;5057107;28;20877;-60
2022/11/24 01:49:26;;;;;;;20.87;5.17;;;6.90;99.90;;;;;;5057590;28;20483;-61
2022/11/24 01:51:58;;;;;;;15.93;4.60;;;6.90;99.90;;;;;;5077592;28;20471;-61
2022/11/24 01:54:33;;;;;;;13.87;4.37;;;7.00;99.90;;;;;;5075357;28;20431;-60
2022/11/24 01:57:12;;;;;;;14.30;4.33;;;7.00;99.90;;;;;;5077325;28;20461;-60
2022/11/24 01:59:39;;;;;;;11.57;4.47;;;7.00;99.90;;;;;;5077271;28;20467;-60
2022/11/24 02:02:09;;;;;;;9.30;4.07;;;7.10;99.90;;;;;;5030040;28;1267931;-60
2022/11/24 02:04:39;;;;;;;16.73;5.10;;;7.10;99.90;;;;;;5077707;28;20520;-61
2022/11/24 02:07:08;;;;;;;15.23;4.60;;;7.20;99.90;;;;;;5077949;28;20799;-61
2022/11/24 02:09:45;;;;;;;12.20;5.17;;;7.30;99.90;;;;;;5077939;28;20551;-58
2022/11/24 02:12:13;;;;;;;15.40;5.00;;;7.30;99.90;;;;;;5075164;28;20461;-57
2022/11/24 02:14:42;;;;;;;12.87;3.83;;;7.40;99.90;;;;;;5057461;28;20531;-61
2022/11/24 02:17:11;;;;;;;14.87;4.40;;;7.40;99.90;;;;;;5057314;28;20513;-62
2022/11/24 02:19:51;;;;;;;14.90;3.77;;;7.40;99.90;;;;;;5057530;28;20466;-61
2022/11/24 02:22:30;;;;;;;14.03;4.10;;;7.30;99.90;;;;;;5071314;28;20440;-60
2022/11/24 02:25:07;;;;;;;19.40;6.87;;;7.20;4.60;;;;;;5076875;28;20462;-61
2022/11/24 02:27:40;;;;;;;14.67;4.00;;;7.20;1.00;;;;;;5057777;28;20881;-62
2022/11/24 02:30:08;;;;;;;14.67;4.23;;;7.20;91.90;;;;;;5057709;28;20991;-61
2022/11/24 02:32:40;;;;;;;15.27;4.20;;;7.30;99.90;;;;;;5068841;28;20956;-61
2022/11/24 02:35:09;;;;;;;16.50;4.70;;;7.30;99.90;;;;;;5077392;28;20468;-60
2022/11/24 02:37:38;;;;;;;12.10;4.03;;;7.30;99.90;;;;;;5074644;28;20916;-61
2022/11/24 02:40:06;;;;;;;11.17;4.60;;;7.30;99.90;;;;;;5075598;28;20555;-61
2022/11/24 02:42:44;;;;;;;12.90;4.50;;;7.20;99.90;;;;;;5057878;28;20532;-61
2022/11/24 02:45:13;;;;;;;10.50;4.13;;;7.20;99.90;;;;;;5057187;28;20894;-62
2022/11/24 02:47:40;;;;;;;12.13;3.90;;;7.20;99.90;;;;;;5068745;28;20461;-61
2022/11/24 02:50:10;;;;;;;13.57;4.50;;;7.30;99.90;;;;;;5077490;28;20500;-61
2022/11/24 02:52:37;;;;;;;13.87;4.20;;;7.30;99.90;;;;;;5059425;28;20463;-62
2022/11/24 02:55:05;;;;;;;18.37;5.47;;;7.30;99.90;;;;;;5057192;28;20861;-62
2022/11/24 02:57:34;;;;;;;18.00;5.70;;;7.40;99.90;;;;;;5063469;28;20746;-61
2022/11/24 03:00:03;;;;;;;18.20;4.40;;;7.40;99.90;;;;;;5077186;28;20465;-62
2022/11/24 03:02:30;;;;;;;14.00;4.00;;;7.40;99.90;;;;;;5074521;28;20456;-60
2022/11/24 03:04:57;;;;;;;12.07;4.23;;;7.40;99.90;;;;;;5076863;28;20471;-59
2022/11/24 03:07:24;;;;;;;20.13;5.30;;;7.40;99.90;;;;;;5073524;28;20791;-62
2022/11/24 03:09:54;;;;;;;15.97;5.27;;;7.40;99.90;;;;;;5075241;28;20534;-61
2022/11/24 03:12:23;;;;;;;11.13;4.47;;;7.40;99.90;;;;;;5075471;28;20860;-61
2022/11/24 03:14:50;;;;;;;11.23;4.53;;;7.40;88.50;;;;;;5077932;28;20465;-61
2022/11/24 03:17:19;;;;;;;14.03;4.63;;;7.50;90.70;;;;;;5081014;28;20515;-61
2022/11/24 03:19:46;;;;;;;13.30;4.73;;;7.50;53.00;;;;;;5061287;28;20527;-62
2022/11/24 03:22:18;;;;;;;18.23;4.47;;;7.50;43.80;;;;;;5062903;28;20526;-61
2022/11/24 03:24:46;;;;;;;18.27;5.17;;;7.50;15.30;;;;;;5060744;28;20737;-57
2022/11/24 03:27:13;;;;;;;14.23;4.60;;;7.50;1.00;;;;;;5060169;28;20440;-61
2022/11/24 03:29:40;;;;;;;12.50;4.10;;;7.50;1.00;;;;;;5061025;28;20462;-61
2022/11/24 03:32:08;;;;;;;12.67;4.27;;;7.40;1.00;;;;;;5060747;28;20732;-61
2022/11/24 03:34:36;;;;;;;14.60;4.97;;;7.40;1.00;;;;;;5076580;28;20465;-61
2022/11/24 03:37:03;;;;;;;19.60;4.73;;;7.40;1.00;;;;;;5061166;28;20468;-61
2022/11/24 03:39:31;;;;;;;20.97;5.40;;;7.40;1.00;;;;;;5060714;28;20443;-61
2022/11/24 03:41:58;;;;;;;16.83;5.50;;;7.40;1.00;;;;;;5060881;28;20443;-60
2022/11/24 03:44:25;;;;;;;13.73;5.10;;;7.30;1.00;;;;;;5071090;28;20836;-60
2022/11/24 03:46:52;;;;;;;15.67;4.93;;;7.40;1.00;;;;;;5078585;28;20472;-60
2022/11/24 03:49:20;;;;;;;17.97;5.67;;;7.30;1.00;;;;;;5078500;28;20461;-62
2022/11/24 03:51:48;;;;;;;15.37;4.30;;;7.40;1.00;;;;;;5080289;28;20925;-61
2022/11/24 03:54:15;;;;;;;21.50;6.73;;;7.50;1.00;;;;;;5073269;28;20443;-62
2022/11/24 03:56:46;;;;;;;24.23;6.60;;;7.40;1.00;;;;;;5061158;28;20436;-60
2022/11/24 03:59:13;;;;;;;14.37;5.33;;;7.50;99.90;;;;;;5059828;28;20448;-61
2022/11/24 04:01:41;;;;;;;11.57;4.87;;;7.50;99.90;;;;;;5071711;28;20453;-60
2022/11/24 04:04:10;;;;;;;16.53;4.70;;;7.50;99.90;;;;;;5079409;28;20439;-60
2022/11/24 04:06:38;;;;;;;13.63;4.23;;;7.60;99.90;;;;;;5079673;28;20598;-61
2022/11/24 04:09:10;;;;;;;17.90;4.00;;;7.60;99.90;;;;;;5078197;28;20814;-61
2022/11/24 04:14:21;;;;;;;15.00;4.17;;;7.60;1.00;;;;;;5078175;28;20920;-61
2022/11/24 04:16:50;;;;;;;17.50;4.67;;;7.60;1.00;;;;;;5060778;28;20466;-61
2022/11/24 04:19:18;;;;;;;13.43;4.73;;;7.60;1.00;;;;;;5060824;28;20549;-61
2022/11/24 04:21:45;;;;;;;14.13;4.30;;;7.70;99.90;;;;;;5059967;28;20542;-61
2022/11/24 04:24:17;;;;;;;22.67;5.00;;;7.70;99.90;;;;;;5057898;28;20466;-61
2022/11/24 04:26:47;;;;;;;19.80;4.53;;;7.70;99.90;;;;;;5073711;28;20556;-60
2022/11/24 04:29:15;;;;;;;13.70;4.37;;;7.80;99.90;;;;;;5085118;28;20441;-60
2022/11/24 04:31:42;;;;;;;13.93;4.67;;;7.80;1.00;;;;;;5082986;28;20470;-61
2022/11/24 04:34:09;;;;;;;12.60;4.13;;;7.90;99.90;;;;;;5086199;28;20463;-59
2022/11/24 04:36:39;;;;;;;21.67;4.77;;;7.90;99.90;;;;;;5078283;28;20873;-63
2022/11/24 04:39:07;;;;;;;14.73;4.90;;;7.90;1.00;;;;;;5070010;28;20860;-64
2022/11/24 04:41:35;;;;;;;17.13;4.60;;;7.90;99.90;;;;;;5079584;28;20436;-63
2022/11/24 04:44:05;;;;;;;19.80;4.10;;;7.90;99.90;;;;;;5079277;28;20461;-64
2022/11/24 04:46:35;;;;;;;13.27;4.13;;;7.90;21.70;;;;;;5078726;28;20478;-63
2022/11/24 04:49:04;;;;;;;18.33;5.37;;;7.80;1.00;;;;;;5076890;28;20861;-63
2022/11/24 04:51:31;;;;;;;13.30;5.03;;;7.80;1.00;;;;;;5071136;28;20489;-63
2022/11/24 04:54:01;;;;;;;16.43;3.90;;;7.80;1.00;;;;;;5067987;28;20772;-64
2022/11/24 04:56:28;;;;;;;14.63;6.07;;;7.70;99.90;;;;;;5079080;28;20472;-63
2022/11/24 04:58:57;;;;;;;17.80;6.13;;;7.70;99.90;;;;;;5077428;28;20939;-62
2022/11/24 05:01:27;;;;;;;19.23;5.63;;;7.70;99.90;;;;;;5077781;28;20535;-62
2022/11/24 05:03:57;;;;;;;13.43;4.53;;;7.70;99.90;;;;;;5075190;28;20433;-61
2022/11/24 05:06:25;;;;;;;14.13;4.47;;;7.70;99.90;;;;;;5076482;28;20436;-61
2022/11/24 05:08:54;;;;;;;15.77;4.37;;;7.70;99.90;;;;;;5078421;28;20860;-62
2022/11/24 05:11:22;;;;;;;15.07;4.87;;;7.70;99.90;;;;;;5078131;28;21014;-62
2022/11/24 05:13:49;;;;;;;16.43;4.93;;;7.70;99.90;;;;;;5083122;28;20451;-61
2022/11/24 05:16:18;;;;;;;19.43;5.70;;;7.70;99.90;;;;;;5076776;28;20457;-62
2022/11/24 05:18:45;;;;;;;18.33;5.10;;;7.70;99.90;;;;;;5059072;28;20468;-61
2022/11/24 05:21:13;;;;;;;16.57;5.20;;;7.70;99.90;;;;;;5077068;28;20464;-61
2022/11/24 05:23:40;;;;;;;15.73;3.67;;;7.80;99.90;;;;;;5062961;28;20864;-62
2022/11/24 05:26:07;;;;;;;16.03;4.80;;;7.80;99.90;;;;;;5068253;28;20461;-63
2022/11/24 05:28:34;;;;;;;18.57;5.33;;;7.80;99.90;;;;;;5077323;28;20475;-64
2022/11/24 05:31:05;;;;;;;17.47;4.97;;;7.80;99.90;;;;;;5085774;28;20469;-62
2022/11/24 05:33:33;;;;;;;14.33;4.87;;;7.80;99.90;;;;;;5071046;28;20465;-62
2022/11/24 05:36:02;;;;;;;20.13;5.90;;;7.90;99.90;;;;;;5078435;28;20468;-62
2022/11/24 05:38:29;;;;;;;13.40;4.60;;;7.90;99.90;;;;;;5064624;28;20939;-61
2022/11/24 05:41:03;;;;;;;20.70;5.30;;;7.90;99.90;;;;;;5083856;28;20453;-61
2022/11/24 05:43:32;;;;;;;13.90;4.33;;;7.90;99.90;;;;;;5058365;28;20480;-61
2022/11/24 05:46:00;;;;;;;22.80;6.03;;;7.90;99.90;;;;;;5070556;28;20431;-62
2022/11/24 05:48:28;;;;;;;22.93;5.53;;;7.90;99.90;;;;;;5070146;28;20760;-61
2022/11/24 05:51:01;;;;;;;19.57;4.90;;;7.90;13.40;;;;;;5077140;28;20489;-61
2022/11/24 05:53:28;;;;;;;11.67;3.97;;;7.90;1.00;;;;;;5076333;28;20472;-61
2022/11/24 05:55:56;;;;;;;20.30;4.70;;;7.80;1.00;;;;;;5076839;28;20461;-62
2022/11/24 05:58:23;;;;;;;19.97;5.73;;;7.90;1.00;;;;;;5077748;28;20462;-62
2022/11/24 06:00:50;;;;;;;21.60;5.67;;;7.90;1.00;;;;;;5073461;28;20527;-62
2022/11/24 06:03:20;;;;;;;13.93;5.20;;;7.90;99.90;;;;;;5076850;28;20489;-64
2022/11/24 06:05:51;;;;;;;20.43;5.10;;;7.90;99.90;;;;;;5061482;28;20941;-62
2022/11/24 06:08:21;;;;;;;14.33;5.17;;;7.90;1.00;;;;;;5074446;28;20440;-61
2022/11/24 06:10:49;;;;;;;19.23;6.10;;;7.90;99.90;;;;;;5082963;28;20534;-61
2022/11/24 06:13:16;;;;;;;14.30;4.83;;;8.00;1.00;;;;;;5085743;28;20966;-61
2022/11/24 06:15:46;;;;;;;12.03;4.13;;;7.90;1.00;;;;;;5094239;28;20551;-62
2022/11/24 06:18:15;;;;;;;16.37;4.53;;;7.90;1.00;;;;;;5097967;28;20938;-61
2022/11/24 06:20:42;;;;;;;15.43;4.67;;;7.90;99.90;;;;;;5079179;28;20491;-62
2022/11/24 06:23:09;;;;;;;21.97;4.77;;;8.00;99.90;;;;;;5086460;28;20954;-61
2022/11/24 06:25:38;;;;;;;24.97;4.77;;;8.00;1.00;;;;;;5082456;28;20461;-61
2022/11/24 06:28:06;;;;;;;18.00;5.00;;;8.00;99.90;;;;;;5076023;28;20885;-61
2022/11/24 06:30:33;;;;;;;15.90;5.20;;;8.00;99.90;;;;;;5074536;28;20759;-60
2022/11/24 06:33:03;;;;;;;16.73;6.10;;;7.90;99.90;;;;;;5076875;28;20481;-62
2022/11/24 06:35:30;;;;;;;18.17;5.80;;;8.00;1.00;;;;;;5071416;28;20477;-61
2022/11/24 06:37:57;;;;;;;15.20;4.90;;;7.90;99.90;;;;;;5058140;28;20939;-61
2022/11/24 06:40:27;;;;;;;18.57;5.63;;;7.90;99.90;;;;;;5057308;28;20465;-61
2022/11/24 06:42:56;;;;;;;24.17;6.23;;;7.90;99.90;;;;;;5056975;28;20462;-61
2022/11/24 06:45:23;;;;;;;14.63;4.27;;;7.90;99.90;;;;;;5059218;28;20433;-61
2022/11/24 06:47:56;;;;;;;13.77;4.97;;;7.90;92.40;;;;;;5075327;28;20465;-61
2022/11/24 06:50:23;;;;;;;14.10;4.37;;;7.90;44.00;;;;;;5062586;28;20433;-62
2022/11/24 06:52:50;;;;;;;16.10;4.90;;;7.90;81.10;;;;;;5056938;28;20494;-61
2022/11/24 06:55:20;;;;;;;19.30;4.93;;;7.90;99.90;;;;;;5056610;28;20436;-61
2022/11/24 06:57:47;;;;;;;13.97;4.47;;;7.90;22.00;;;;;;5075313;28;20461;-60
2022/11/24 07:00:17;;;;;;;16.60;4.90;;;7.90;1.00;;;;;;5074866;28;20457;-61
2022/11/24 07:02:44;;;;;;;12.43;4.20;;;8.00;1.00;;;;;;5056572;28;20514;-61
2022/11/24 07:05:12;;;;;;;15.30;4.60;;;8.00;1.00;;;;;;5056941;28;20443;-61
2022/11/24 07:07:42;;;;;;;17.77;5.30;;;8.00;1.00;;;;;;5070900;28;20744;-59
2022/11/24 07:10:10;;;;;;;17.20;4.33;;;7.90;1.00;;;;;;5077281;28;20560;-61
2022/11/24 07:12:37;;;;;;;12.30;4.57;;;7.90;1.00;;;;;;5076513;28;20532;-61
2022/11/24 07:15:08;;;;;;;16.97;4.83;;;7.90;1.00;;;;;;5077048;28;20753;-61
2022/11/24 07:17:37;;;;;;;11.03;3.50;;;7.90;1.00;;;;;;5066361;28;20463;-61
2022/11/24 07:20:06;;;;;;;8.50;3.63;;;7.90;1.00;;;;;;5057057;28;20462;-61
2022/11/24 07:22:34;;;;;;;11.83;3.63;;;7.90;99.90;;;;;;5056340;28;20441;-61
2022/11/24 07:25:08;;;;;;;14.40;4.30;;;7.90;99.90;;;;;;5056599;28;20462;-60
2022/11/24 07:27:38;;;;;;;13.20;4.60;;;7.90;99.90;;;;;;5062613;28;20805;-61
2022/11/24 07:30:09;;;;;;;9.33;3.07;;;7.90;99.90;;;;;;5077065;28;20462;-62
2022/11/24 07:32:38;;;;;;;10.80;4.00;;;7.80;99.90;;;;;;5074878;28;20791;-61
2022/11/24 07:35:06;;;;;;;9.53;4.00;;;7.90;99.90;;;;;;5076853;28;20754;-61
2022/11/24 07:37:37;;;;;;;12.30;3.50;;;7.90;99.90;;;;;;5073954;28;20436;-61
2022/11/24 07:40:06;;;;;;;10.60;4.30;;;7.90;99.90;;;;;;5061371;28;20763;-60
2022/11/24 07:42:35;;;;;;;9.13;3.80;;;7.90;99.90;;;;;;5076370;28;20432;-61
2022/11/24 07:45:02;;;;;;;7.33;3.37;;;7.90;39.00;;;;;;5076366;28;20505;-60
2022/11/24 07:47:30;;;;;;;10.20;3.67;;;8.00;1.00;;;;;;5076936;28;20559;-61
2022/11/24 07:49:58;;;;;;;8.00;3.37;;;8.00;1.00;;;;;;5057624;28;20466;-61
2022/11/24 07:52:25;;;;;;;9.17;3.30;;;8.10;1.00;;;;;;5057466;28;20485;-61
2022/11/24 07:54:55;;;;;;;7.83;2.80;;;8.10;1.00;;;;;;5060960;28;20913;-60
2022/11/24 07:57:32;;;;;;;4.97;2.63;;;8.00;99.90;;;;;;5068034;28;20913;-60
2022/11/24 07:59:59;;;;;;;7.47;3.80;;;8.10;99.90;;;;;;5061330;28;20901;-60
2022/11/24 08:02:26;;;;;;;4.40;2.67;;;8.20;99.90;;;;;;5059800;28;20482;-60
2022/11/24 08:04:54;;;;;;;9.93;2.50;;;8.20;99.90;;;;;;5077486;28;20473;-59
2022/11/24 08:07:24;;;;;;;8.40;2.80;;;8.30;42.00;;;;;;5078985;28;20468;-60
2022/11/24 08:09:53;;;;;;;5.10;2.40;;;8.30;8.60;;;;;;5068173;28;20576;-62
2022/11/24 08:12:21;;;;;;;7.23;2.07;;;8.30;1.00;;;;;;5060280;28;20494;-62
2022/11/24 08:14:49;;;;;;;4.53;2.20;;;8.20;1.00;;;;;;5059024;28;20462;-61
2022/11/24 08:17:16;;;;;;;7.17;2.47;;;8.10;7.30;;;;;;5063325;28;20905;-62
2022/11/24 08:19:45;;;;;;;8.67;2.60;;;8.10;85.30;;;;;;5063004;28;20458;-62
2022/11/24 08:22:12;;;;;;;3.93;2.30;;;8.00;99.90;;;;;;5078035;28;20781;-62
2022/11/24 08:24:45;;;;;;;5.83;2.57;;;8.00;99.90;;;;;;5073745;28;20555;-63
2022/11/24 08:27:13;;;;;;;5.47;2.60;;;7.90;99.90;;;;;;5076254;28;20514;-63
2022/11/24 08:29:40;;;;;;;6.40;2.80;;;8.00;99.90;;;;;;5078052;28;20484;-62
2022/11/24 08:32:08;;;;;;;13.47;2.77;;;7.90;99.90;;;;;;5060444;28;20493;-62
2022/11/24 08:34:39;;;;;;;7.30;2.90;;;7.90;99.90;;;;;;5058497;28;20443;-62
2022/11/24 08:37:07;;;;;;;7.57;2.60;;;8.00;99.90;;;;;;5060923;28;20531;-62
2022/11/24 08:39:34;;;;;;;5.80;2.50;;;8.00;99.90;;;;;;5058930;28;20462;-62
2022/11/24 08:42:03;;;;;;;4.77;3.03;;;8.00;99.90;;;;;;5070523;28;20443;-62
2022/11/24 08:44:30;;;;;;;8.60;4.40;;;8.00;99.90;;;;;;5077224;28;20515;-62
2022/11/24 08:46:57;;;;;;;5.20;3.50;;;8.00;99.90;;;;;;5083667;28;20479;-62
2022/11/24 08:49:25;;;;;;;5.07;2.80;;;8.00;99.90;;;;;;5099533;28;20460;-60
2022/11/24 08:52:00;;;;;;;5.87;2.50;;;8.00;99.90;;;;;;5091659;28;20499;-62
2022/11/24 08:54:28;;;;;;;6.03;3.17;;;8.00;1.00;;;;;;5079347;28;20898;-61
2022/11/24 08:56:55;;;;;;;9.93;3.10;;;8.00;1.00;;;;;;5077298;28;20574;-62
2022/11/24 08:59:24;;;;;;;8.03;2.83;;;8.10;1.00;;;;;;5079043;28;20548;-62
2022/11/24 09:01:51;;;;;;;6.60;3.27;;;8.10;1.00;;;;;;5075746;28;20823;-62
2022/11/24 09:04:18;;;;;;;8.13;3.00;;;8.10;1.00;;;;;;5066058;28;20472;-62
2022/11/24 09:06:48;;;;;;;10.00;3.20;;;8.20;1.00;;;;;;5076994;28;20519;-61
2022/11/24 09:09:16;;;;;;;9.70;3.80;;;8.20;1.00;;;;;;5079068;28;20739;-59
2022/11/24 09:11:43;;;;;;;8.23;3.90;;;8.10;1.00;;;;;;5078002;28;20487;-62
2022/11/24 09:14:11;;;;;;;8.03;3.23;;;8.10;1.00;;;;;;5059813;28;20447;-62
2022/11/24 09:16:42;;;;;;;8.17;3.90;;;8.10;1.00;;;;;;5059461;28;20520;-63
2022/11/24 09:19:10;;;;;;;9.90;3.50;;;8.10;11.20;;;;;;5058971;28;20497;-62
2022/11/24 09:21:38;;;;;;;13.80;3.63;;;8.10;1.00;;;;;;5058574;28;20535;-62
2022/11/24 09:24:10;;;;;;;8.33;3.47;;;8.10;1.00;;;;;;5059339;28;20481;-62
2022/11/24 09:26:38;;;;;;;9.77;3.60;;;8.10;1.00;;;;;;5058597;28;20552;-62
2022/11/24 09:29:11;;;;;;;7.33;4.03;;;8.10;1.00;;;;;;5077079;28;20474;-62
2022/11/24 09:31:45;;;;;;;9.93;3.23;;;8.10;1.00;;;;;;5078389;28;20471;-62
2022/11/24 09:34:14;;;;;;;9.00;3.33;;;8.10;1.00;;;;;;5066853;28;20821;-62
2022/11/24 09:36:42;;;;;;;7.97;3.40;;;8.20;1.00;;;;;;5058285;28;20896;-62
2022/11/24 09:39:13;;;;;;;5.73;2.87;;;8.20;1.00;;;;;;5059041;28;20513;-62
2022/11/24 09:41:53;;;;;;;12.60;4.07;;;8.20;1.00;;;;;;5058341;28;20959;-62
2022/11/24 09:44:54;;;;;;;9.00;3.13;;;8.20;1.00;;;;;;5066425;28;20456;-62
2022/11/24 09:47:34;;;;;;;11.60;3.47;;;8.30;1.00;;;;;;5065752;28;20763;-62
2022/11/24 09:50:05;;;;;;;7.40;3.33;;;8.30;1.00;;;;;;5076626;28;20465;-62
2022/11/24 09:52:43;;;;;;;7.50;3.40;;;8.40;1.00;;;;;;5078139;28;20492;-62
2022/11/24 09:55:25;;;;;;;9.13;3.60;;;8.40;1.00;;;;;;5066173;28;20882;-62
2022/11/24 09:57:59;;;;;;;10.93;3.20;;;8.50;99.90;;;;;;5058148;28;20558;-62
2022/11/24 10:00:27;;;;;;;13.93;4.33;;;8.50;99.90;;;;;;5058412;28;20723;-62
2022/11/24 10:02:55;;;;;;;14.23;4.17;;;8.50;99.90;;;;;;5057705;28;20490;-61
2022/11/24 10:05:30;;;;;;;8.60;4.40;;;8.60;99.90;;;;;;5066746;28;20961;-62
2022/11/24 10:08:10;;;;;;;11.43;3.60;;;8.60;99.90;;;;;;5077741;28;20905;-62
2022/11/24 10:10:51;;;;;;;7.17;5.50;;;8.60;99.90;;;;;;5075509;28;20469;-63
2022/11/24 10:13:31;;;;;;;17.30;5.30;;;8.50;1.00;;;;;;5077813;28;20941;-64
2022/11/24 10:16:09;;;;;;;8.67;3.53;;;8.50;1.00;;;;;;5066553;28;20462;-65
2022/11/24 10:18:56;;;;;;;9.57;4.30;;;8.40;1.00;;;;;;5057561;28;20859;-64
2022/11/24 10:21:45;;;;;;;12.13;4.27;;;8.40;99.90;;;;;;5076196;28;20915;-63
2022/11/24 10:24:39;;;;;;;10.50;3.70;;;8.50;99.90;;;;;;5077490;28;20457;-64
2022/11/24 10:27:17;;;;;;;6.17;3.97;;;8.50;23.00;;;;;;5060355;28;20469;-63
2022/11/24 10:29:45;;;;;;;8.23;4.13;;;8.40;1.00;;;;;;5076514;28;20465;-63
2022/11/24 10:32:18;;;;;;;10.97;4.50;;;8.40;1.00;;;;;;5077627;28;20463;-63
2022/11/24 10:34:49;;;;;;;9.83;3.40;;;8.50;1.00;;;;;;5077564;28;20460;-63
2022/11/24 10:37:26;;;;;;;14.47;4.10;;;8.50;1.00;;;;;;5075562;28;20465;-63
2022/11/24 10:40:02;;;;;;;12.67;4.30;;;8.60;1.00;;;;;;5075541;28;20889;-63
2022/11/24 10:42:31;;;;;;;13.07;4.13;;;8.90;1.00;;;;;;5076404;28;20435;-63
2022/11/24 10:45:02;;;;;;;7.50;3.50;;;9.20;1.00;;;;;;5076905;28;20476;-62
2022/11/24 10:47:31;;;;;;;8.77;3.80;;;9.30;99.90;;;;;;5063391;28;20470;-62
2022/11/24 10:50:02;;;;;;;9.67;4.23;;;9.60;99.90;;;;;;5066574;28;20847;-62
2022/11/24 10:52:43;;;;;;;9.50;3.63;;;10.00;4.70;;;;;;5058183;28;20493;-62
2022/11/24 10:55:11;;;;;;;12.83;4.10;;;10.30;1.00;;;;;;5055239;28;20484;-62
2022/11/24 10:57:44;;;;;;;5.87;3.23;;;10.20;1.00;;;;;;5065290;28;20816;-61
2022/11/24 11:00:33;;;;;;;12.17;3.73;;;10.50;1.00;;;;;;5077509;28;20468;-62
2022/11/24 11:03:18;;;;;;;9.40;3.43;;;10.60;1.00;;;;;;5073862;28;20481;-61
2022/11/24 11:05:52;;;;;;;6.63;3.70;;;10.60;1.00;;;;;;5075299;28;20819;-61
2022/11/24 11:08:24;;;;;;;10.33;3.90;;;10.60;1.00;;;;;;5064031;28;20472;-61
2022/11/24 11:11:22;;;;;;;7.23;3.17;;;10.80;1.00;;;;;;5055656;28;20473;-61
2022/11/24 11:13:54;;;;;;;11.53;4.00;;;11.10;1.00;;;;;;5055883;28;20487;-62
2022/11/24 11:16:27;;;;;;;7.60;3.93;;;10.90;1.00;;;;;;5056853;28;20436;-62
2022/11/24 11:18:55;;;;;;;9.10;3.90;;;10.80;1.00;;;;;;5056761;28;20899;-60
2022/11/24 11:21:33;;;;;;;12.30;4.50;;;10.80;1.00;;;;;;5057723;28;20462;-62
2022/11/24 11:24:05;;;;;;;9.60;3.50;;;10.60;1.00;;;;;;5056406;28;20465;-60
2022/11/24 11:26:35;;;;;;;12.30;3.13;;;10.40;1.00;;;;;;5056634;28;20470;-61
2022/11/24 11:29:19;;;;;;;6.50;3.30;;;10.20;1.00;;;;;;5056775;28;20467;-62
2022/11/24 11:32:03;;;;;;;10.50;3.40;;;10.20;1.00;;;;;;5059221;28;20462;-61
2022/11/24 11:34:35;;;;;;;14.63;5.27;;;10.40;1.00;;;;;;5058590;28;20490;-61
2022/11/24 11:37:06;;;;;;;8.23;3.43;;;10.40;1.00;;;;;;5059649;28;20468;-62
2022/11/24 11:39:35;;;;;;;10.20;2.87;;;10.60;1.00;;;;;;5069494;28;20905;-60
2022/11/24 11:42:18;;;;;;;8.97;3.60;;;11.10;1.00;;;;;;5080634;28;20461;-61
2022/11/24 11:44:50;;;;;;;11.67;3.40;;;11.60;1.00;;;;;;5078184;28;20461;-61
2022/11/24 11:47:27;;;;;;;10.33;3.40;;;11.90;99.90;;;;;;5080531;28;20563;-62
2022/11/24 11:49:56;;;;;;;7.13;3.03;;;11.50;99.90;;;;;;5071120;28;20554;-62
2022/11/24 11:52:50;;;;;;;11.00;3.90;;;11.30;99.90;;;;;;5061802;28;20467;-62
2022/11/24 11:55:45;;;;;;;7.23;3.63;;;11.10;99.90;;;;;;5055971;28;20462;-62
2022/11/24 11:58:40;;;;;;;11.70;4.40;;;10.90;99.90;;;;;;5060780;28;20479;-63
2022/11/24 12:01:20;;;;;;;6.93;3.50;;;11.00;1.00;;;;;;5074590;28;20890;-63
2022/11/24 12:04:01;;;;;;;11.33;4.27;;;11.00;1.00;;;;;;5078213;28;20797;-63
2022/11/24 12:06:45;;;;;;;11.57;3.63;;;11.00;1.00;;;;;;5060165;28;20748;-63
2022/11/24 12:09:24;;;;;;;7.60;3.70;;;10.90;1.00;;;;;;5059508;28;20454;-63
2022/11/24 12:12:11;;;;;;;15.10;5.00;;;10.90;1.00;;;;;;5077016;28;20500;-63
2022/11/24 12:14:47;;;;;;;11.60;4.20;;;10.90;1.00;;;;;;5077979;28;20528;-63
2022/11/24 12:17:21;;;;;;;7.47;3.27;;;11.00;1.00;;;;;;5079643;28;20461;-63
2022/11/24 12:20:15;;;;;;;13.83;3.70;;;11.00;1.00;;;;;;5080051;28;20560;-63
2022/11/24 12:22:48;;;;;;;12.13;4.60;;;11.00;1.00;;;;;;5058415;28;20466;-63
2022/11/24 12:25:25;;;;;;;8.93;3.87;;;11.00;1.00;;;;;;5060289;28;20462;-63
2022/11/24 12:28:06;;;;;;;9.73;5.27;;;11.10;1.00;;;;;;5059747;28;20553;-63
2022/11/24 12:30:42;;;;;;;13.40;3.33;;;11.20;99.90;;;;;;5066108;28;20901;-64
2022/11/24 12:33:30;;;;;;;10.97;3.43;;;11.40;99.90;;;;;;5059284;28;20860;-64
2022/11/24 12:36:11;;;;;;;11.53;3.17;;;11.20;99.90;;;;;;5060190;28;20791;-64
2022/11/24 12:38:50;;;;;;;12.40;4.20;;;11.20;99.90;;;;;;5058881;28;20468;-64
2022/11/24 12:41:47;;;;;;;12.83;3.90;;;11.20;99.90;;;;;;5059319;28;20443;-64
2022/11/24 12:44:33;;;;;;;6.30;3.90;;;11.10;99.90;;;;;;5077855;28;20453;-64
2022/11/24 12:47:14;;;;;;;9.70;3.73;;;11.10;99.90;;;;;;5078012;28;20510;-64
2022/11/24 12:49:52;;;;;;;11.00;4.40;;;11.10;99.90;;;;;;5079766;28;20464;-64
2022/11/24 12:52:25;;;;;;;12.73;4.00;;;11.10;99.90;;;;;;5073401;28;20768;-64
2022/11/24 12:54:53;;;;;;;11.53;3.30;;;11.10;99.90;;;;;;5059129;28;20862;-64
2022/11/24 12:57:28;;;;;;;9.57;4.10;;;11.20;99.90;;;;;;5060196;28;20480;-64
2022/11/24 13:00:04;;;;;;;13.87;3.50;;;11.00;99.90;;;;;;5059513;28;20466;-64
2022/11/24 13:02:50;;;;;;;13.80;4.87;;;10.70;99.90;;;;;;5063950;28;20940;-64
2022/11/24 13:05:24;;;;;;;14.07;4.73;;;10.60;99.90;;;;;;5078897;28;20467;-64
2022/11/24 13:07:57;;;;;;;16.97;4.00;;;10.60;1.00;;;;;;5077467;28;20530;-64
2022/11/24 13:10:34;;;;;;;15.37;4.83;;;10.70;1.00;;;;;;5078151;28;20460;-64
2022/11/24 13:13:04;;;;;;;14.40;5.07;;;10.70;1.00;;;;;;5078033;28;20449;-64
2022/11/24 13:15:56;;;;;;;13.07;3.60;;;10.70;1.00;;;;;;5077575;28;20461;-64
2022/11/24 13:18:44;;;;;;;14.13;3.77;;;10.60;1.00;;;;;;5075339;28;20461;-64